This is the latest recevied weather packets stored in our database for station/object KA7EII-13. If no packets are shown the sender has not sent any weather packets the latest 10 day(s).
| Time | Temp. | Humidity | Pressure | Rain* | Wind** | Luminosity | Snow |
|---|---|---|---|---|---|---|---|
| 1777403258 | 12.22° C | 41% | 1108.5 hPa | 0 mm | - | 883 W/m² | - |
| 1777402958 | 12.22° C | 42% | 1108.4 hPa | 0 mm | - | 704 W/m² | - |
| 1777402654 | 11.11° C | 40% | 1108.6 hPa | 0 mm | - | 889 W/m² | - |
| 1777402353 | 10.56° C | 45% | 1108.7 hPa | 0 mm | - | 830 W/m² | - |
| 1777402051 | 11.11° C | 45% | 1108.6 hPa | 0 mm | - | 173 W/m² | - |
| 1777401746 | 12.22° C | 44% | 1108.9 hPa | 0 mm | - | 285 W/m² | - |
| 1777401442 | 11.67° C | 43% | 1108.7 hPa | 0 mm | - | 774 W/m² | - |
| 1777401137 | 12.22° C | 44% | 1108.9 hPa | 0 mm | - | 770 W/m² | - |
| 1777400833 | 11.67° C | 43% | 1108.7 hPa | 0 mm | - | 727 W/m² | - |
| 1777400530 | 10.56° C | 45% | 1109 hPa | 0 mm | - | 742 W/m² | - |
| 1777400227 | 11.11° C | 47% | 1108.9 hPa | 0 mm | - | 167 W/m² | - |
| 1777399923 | 11.11° C | 50% | 1109.1 hPa | 0 mm | - | 753 W/m² | - |
| 1777399620 | 11.11° C | 47% | 1109.1 hPa | 0 mm | - | 741 W/m² | - |
| 1777399317 | 10.56° C | 46% | 1109.3 hPa | 0 mm | - | 789 W/m² | - |
| 1777399015 | 11.11° C | 48% | 1109 hPa | 0 mm | - | 315 W/m² | - |
| 1777398712 | 11.11° C | 51% | 1109.2 hPa | 0 mm | - | 763 W/m² | - |
| 1777398409 | 10.56° C | 52% | 1109.2 hPa | 0 mm | - | 739 W/m² | - |
| 1777398105 | 10.56° C | 51% | 1109.2 hPa | 0 mm | - | 789 W/m² | - |
| 1777397802 | 11.11° C | 50% | 1109.2 hPa | 0 mm | - | 796 W/m² | - |
| 1777397498 | 10.56° C | 51% | 1109.3 hPa | 0 mm | - | 792 W/m² | - |
| 1777397194 | 10.56° C | 51% | 1109.5 hPa | 0 mm | - | 799 W/m² | - |
| 1777396891 | 10° C | 54% | 1109 hPa | 0 mm | - | 287 W/m² | - |
| 1777396587 | 10.56° C | 52% | 1109.4 hPa | 0 mm | - | 765 W/m² | - |
| 1777396284 | 10° C | 54% | 1109.1 hPa | 0 mm | - | 743 W/m² | - |
| 1777395981 | 10.56° C | 55% | 1109.2 hPa | 0 mm | - | 719 W/m² | - |
* Rain latest hour (hover to see other rain measurements)
** Current wind speed in m/s (hover to see current wind gust speed)